Aviation Digital Data Service (ADDS)

Output produced by METARs form (1352 UTC 13 December 2019)
found at http://www.aviationweather.gov/metar/data/
 
METAR text: YPAD 131330Z 19006KT 9999 FEW025 SCT330 15/09 Q1020 FM1530 19006KT 9999 SCT015 BKN020
Conditions at: YPAD (ADELAIDE INTL AR, AU) observed 1330 UTC 13 December 2019
Temperature: 15.0°C (59°F)
Dewpoint: 9.0°C (48°F) [RH = 67%]
Pressure (altimeter): 30.12 inches Hg (1020.0 mb)
Winds: from the S (190 degrees) at 7 MPH (6 knots; 3.1 m/s)
Visibility: 6 or more miles (10+ km)
Ceiling: at least 12,000 feet AGL
Clouds: few clouds at 2500 feet AGL
scattered clouds at 33000 feet AGL
Weather: no significant weather observed at this time

METAR text: YPAD 131300Z 19006KT 9999 FEW027 SCT350 15/09 Q1020 NOSIG
Conditions at: YPAD (ADELAIDE INTL AR, AU) observed 1300 UTC 13 December 2019
Temperature: 15.0°C (59°F)
Dewpoint: 9.0°C (48°F) [RH = 67%]
Pressure (altimeter): 30.12 inches Hg (1020.0 mb)
Winds: from the S (190 degrees) at 7 MPH (6 knots; 3.1 m/s)
Visibility: 6 or more miles (10+ km)
Ceiling: at least 12,000 feet AGL
Clouds: few clouds at 2700 feet AGL
scattered clouds at 35000 feet AGL
Weather: no significant weather observed at this time

METAR text: YPAD 131230Z 17007KT 9999 FEW027 SCT350 15/09 Q1020 NOSIG
Conditions at: YPAD (ADELAIDE INTL AR, AU) observed 1230 UTC 13 December 2019
Temperature: 15.0°C (59°F)
Dewpoint: 9.0°C (48°F) [RH = 67%]
Pressure (altimeter): 30.12 inches Hg (1020.0 mb)
Winds: from the S (170 degrees) at 8 MPH (7 knots; 3.6 m/s)
Visibility: 6 or more miles (10+ km)
Ceiling: at least 12,000 feet AGL
Clouds: few clouds at 2700 feet AGL
scattered clouds at 35000 feet AGL
Weather: no significant weather observed at this time

METAR text: YPAD 131200Z 18009KT 9999 FEW027 SCT350 15/09 Q1020 NOSIG
Conditions at: YPAD (ADELAIDE INTL AR, AU) observed 1200 UTC 13 December 2019
Temperature: 15.0°C (59°F)
Dewpoint: 9.0°C (48°F) [RH = 67%]
Pressure (altimeter): 30.12 inches Hg (1020.0 mb)
Winds: from the S (180 degrees) at 10 MPH (9 knots; 4.6 m/s)
Visibility: 6 or more miles (10+ km)
Ceiling: at least 12,000 feet AGL
Clouds: few clouds at 2700 feet AGL
scattered clouds at 35000 feet AGL
Weather: no significant weather observed at this time

METAR text: YPAD 131130Z 18009KT 9999 FEW027 SCT350 16/09 Q1020 NOSIG
Conditions at: YPAD (ADELAIDE INTL AR, AU) observed 1130 UTC 13 December 2019
Temperature: 16.0°C (61°F)
Dewpoint: 9.0°C (48°F) [RH = 63%]
Pressure (altimeter): 30.12 inches Hg (1020.0 mb)
Winds: from the S (180 degrees) at 10 MPH (9 knots; 4.6 m/s)
Visibility: 6 or more miles (10+ km)
Ceiling: at least 12,000 feet AGL
Clouds: few clouds at 2700 feet AGL
scattered clouds at 35000 feet AGL
Weather: no significant weather observed at this time

METAR text: YPAD 131100Z 17010KT 9999 FEW027 BKN350 16/09 Q1020 NOSIG
Conditions at: YPAD (ADELAIDE INTL AR, AU) observed 1100 UTC 13 December 2019
Temperature: 16.0°C (61°F)
Dewpoint: 9.0°C (48°F) [RH = 63%]
Pressure (altimeter): 30.12 inches Hg (1020.0 mb)
Winds: from the S (170 degrees) at 12 MPH (10 knots; 5.1 m/s)
Visibility: 6 or more miles (10+ km)
Ceiling: 35000 feet AGL
Clouds: few clouds at 2700 feet AGL
broken clouds at 35000 feet AGL
Weather: no significant weather observed at this time

METAR text: YPAD 131030Z 19013KT 9999 FEW027 BKN350 17/10 Q1020 FM1230 17010KT CAVOK
Conditions at: YPAD (ADELAIDE INTL AR, AU) observed 1030 UTC 13 December 2019
Temperature: 17.0°C (63°F)
Dewpoint: 10.0°C (50°F) [RH = 63%]
Pressure (altimeter): 30.12 inches Hg (1020.0 mb)
Winds: from the S (190 degrees) at 15 MPH (13 knots; 6.7 m/s)
Visibility: 6 or more miles (10+ km)
Ceiling: 35000 feet AGL
Clouds: few clouds at 2700 feet AGL
broken clouds at 35000 feet AGL
Weather: no significant weather observed at this time

METAR text: YPAD 131000Z 20015KT 9999 FEW027 BKN350 18/10 Q1019 FM1030 19012KT CAVOK FM1230 17010KT CAVOK
Conditions at: YPAD (ADELAIDE INTL AR, AU) observed 1000 UTC 13 December 2019
Temperature: 18.0°C (64°F)
Dewpoint: 10.0°C (50°F) [RH = 59%]
Pressure (altimeter): 30.09 inches Hg (1019.0 mb)
Winds: from the SSW (200 degrees) at 17 MPH (15 knots; 7.7 m/s)
Visibility: 6 or more miles (10+ km)
Ceiling: 35000 feet AGL
Clouds: few clouds at 2700 feet AGL
broken clouds at 35000 feet AGL
Weather: no significant weather observed at this time

METAR text: YPAD 130930Z 21012KT CAVOK 18/12 Q1019 FM1000 19010KT CAVOK
Conditions at: YPAD (ADELAIDE INTL AR, AU) observed 0930 UTC 13 December 2019
Temperature: 18.0°C (64°F)
Dewpoint: 12.0°C (54°F) [RH = 68%]
Pressure (altimeter): 30.09 inches Hg (1019.0 mb)
Winds: from the SSW (210 degrees) at 14 MPH (12 knots; 6.2 m/s)
Visibility: 6 or more miles (10+ km)
Ceiling: ceiling and visibility are OK
Clouds: unknown
Weather: no significant weather observed at this time

METAR text: YPAD 130900Z 20016KT 9999 FEW027 BKN350 18/12 Q1020 FM1000 17010KT CAVOK
Conditions at: YPAD (ADELAIDE INTL AR, AU) observed 0900 UTC 13 December 2019
Temperature: 18.0°C (64°F)
Dewpoint: 12.0°C (54°F) [RH = 68%]
Pressure (altimeter): 30.12 inches Hg (1020.0 mb)
Winds: from the SSW (200 degrees) at 18 MPH (16 knots; 8.2 m/s)
Visibility: 6 or more miles (10+ km)
Ceiling: 35000 feet AGL
Clouds: few clouds at 2700 feet AGL
broken clouds at 35000 feet AGL
Weather: no significant weather observed at this time

METAR text: YPAD 130830Z 21015KT 9999 FEW027 BKN350 18/11 Q1019 FM0930 17010KT CAVOK
Conditions at: YPAD (ADELAIDE INTL AR, AU) observed 0830 UTC 13 December 2019
Temperature: 18.0°C (64°F)
Dewpoint: 11.0°C (52°F) [RH = 64%]
Pressure (altimeter): 30.09 inches Hg (1019.0 mb)
Winds: from the SSW (210 degrees) at 17 MPH (15 knots; 7.7 m/s)
Visibility: 6 or more miles (10+ km)
Ceiling: 35000 feet AGL
Clouds: few clouds at 2700 feet AGL
broken clouds at 35000 feet AGL
Weather: no significant weather observed at this time

METAR text: YPAD 130800Z 21017KT 9999 FEW027 BKN350 18/11 Q1019 FM0930 17010KT CAVOK
Conditions at: YPAD (ADELAIDE INTL AR, AU) observed 0800 UTC 13 December 2019
Temperature: 18.0°C (64°F)
Dewpoint: 11.0°C (52°F) [RH = 64%]
Pressure (altimeter): 30.09 inches Hg (1019.0 mb)
Winds: from the SSW (210 degrees) at 20 MPH (17 knots; 8.7 m/s)
Visibility: 6 or more miles (10+ km)
Ceiling: 35000 feet AGL
Clouds: few clouds at 2700 feet AGL
broken clouds at 35000 feet AGL
Weather: no significant weather observed at this time

METAR text: YPAD 130730Z 21016KT 9999 FEW030 BKN350 19/12 Q1019 NOSIG
Conditions at: YPAD (ADELAIDE INTL AR, AU) observed 0730 UTC 13 December 2019
Temperature: 19.0°C (66°F)
Dewpoint: 12.0°C (54°F) [RH = 64%]
Pressure (altimeter): 30.09 inches Hg (1019.0 mb)
Winds: from the SSW (210 degrees) at 18 MPH (16 knots; 8.2 m/s)
Visibility: 6 or more miles (10+ km)
Ceiling: 35000 feet AGL
Clouds: few clouds at 3000 feet AGL
broken clouds at 35000 feet AGL
Weather: no significant weather observed at this time

METAR text: YPAD 130700Z 22017KT 9999 FEW032 BKN350 19/10 Q1019 NOSIG
Conditions at: YPAD (ADELAIDE INTL AR, AU) observed 0700 UTC 13 December 2019
Temperature: 19.0°C (66°F)
Dewpoint: 10.0°C (50°F) [RH = 56%]
Pressure (altimeter): 30.09 inches Hg (1019.0 mb)
Winds: from the SW (220 degrees) at 20 MPH (17 knots; 8.7 m/s)
Visibility: 6 or more miles (10+ km)
Ceiling: 35000 feet AGL
Clouds: few clouds at 3200 feet AGL
broken clouds at 35000 feet AGL
Weather: no significant weather observed at this time

METAR text: YPAD 130630Z 22016KT 9999 FEW032 BKN350 18/10 Q1020 NOSIG
Conditions at: YPAD (ADELAIDE INTL AR, AU) observed 0630 UTC 13 December 2019
Temperature: 18.0°C (64°F)
Dewpoint: 10.0°C (50°F) [RH = 59%]
Pressure (altimeter): 30.12 inches Hg (1020.0 mb)
Winds: from the SW (220 degrees) at 18 MPH (16 knots; 8.2 m/s)
Visibility: 6 or more miles (10+ km)
Ceiling: 35000 feet AGL
Clouds: few clouds at 3200 feet AGL
broken clouds at 35000 feet AGL
Weather: no significant weather observed at this time

METAR text: YPAD 130600Z 22017KT 9999 FEW032 BKN350 19/10 Q1020 NOSIG
Conditions at: YPAD (ADELAIDE INTL AR, AU) observed 0600 UTC 13 December 2019
Temperature: 19.0°C (66°F)
Dewpoint: 10.0°C (50°F) [RH = 56%]
Pressure (altimeter): 30.12 inches Hg (1020.0 mb)
Winds: from the SW (220 degrees) at 20 MPH (17 knots; 8.7 m/s)
Visibility: 6 or more miles (10+ km)
Ceiling: 35000 feet AGL
Clouds: few clouds at 3200 feet AGL
broken clouds at 35000 feet AGL
Weather: no significant weather observed at this time

METAR text: YPAD 130530Z 23018KT 9999 FEW032 BKN350 18/09 Q1020 NOSIG
Conditions at: YPAD (ADELAIDE INTL AR, AU) observed 0530 UTC 13 December 2019
Temperature: 18.0°C (64°F)
Dewpoint: 9.0°C (48°F) [RH = 56%]
Pressure (altimeter): 30.12 inches Hg (1020.0 mb)
Winds: from the SW (230 degrees) at 21 MPH (18 knots; 9.3 m/s)
Visibility: 6 or more miles (10+ km)
Ceiling: 35000 feet AGL
Clouds: few clouds at 3200 feet AGL
broken clouds at 35000 feet AGL
Weather: no significant weather observed at this time

METAR text: YPAD 130500Z 23016KT 9999 FEW032 BKN350 19/09 Q1020 NOSIG
Conditions at: YPAD (ADELAIDE INTL AR, AU) observed 0500 UTC 13 December 2019
Temperature: 19.0°C (66°F)
Dewpoint: 9.0°C (48°F) [RH = 52%]
Pressure (altimeter): 30.12 inches Hg (1020.0 mb)
Winds: from the SW (230 degrees) at 18 MPH (16 knots; 8.2 m/s)
Visibility: 6 or more miles (10+ km)
Ceiling: 35000 feet AGL
Clouds: few clouds at 3200 feet AGL
broken clouds at 35000 feet AGL
Weather: no significant weather observed at this time

METAR text: YPAD 130430Z 23015KT 9999 FEW032 BKN350 19/09 Q1020 NOSIG
Conditions at: YPAD (ADELAIDE INTL AR, AU) observed 0430 UTC 13 December 2019
Temperature: 19.0°C (66°F)
Dewpoint: 9.0°C (48°F) [RH = 52%]
Pressure (altimeter): 30.12 inches Hg (1020.0 mb)
Winds: from the SW (230 degrees) at 17 MPH (15 knots; 7.7 m/s)
Visibility: 6 or more miles (10+ km)
Ceiling: 35000 feet AGL
Clouds: few clouds at 3200 feet AGL
broken clouds at 35000 feet AGL
Weather: no significant weather observed at this time

METAR text: YPAD 130400Z 24014KT 9999 FEW035 BKN350 19/09 Q1021 NOSIG
Conditions at: YPAD (ADELAIDE INTL AR, AU) observed 0400 UTC 13 December 2019
Temperature: 19.0°C (66°F)
Dewpoint: 9.0°C (48°F) [RH = 52%]
Pressure (altimeter): 30.15 inches Hg (1021.0 mb)
Winds: from the WSW (240 degrees) at 16 MPH (14 knots; 7.2 m/s)
Visibility: 6 or more miles (10+ km)
Ceiling: 35000 feet AGL
Clouds: few clouds at 3500 feet AGL
broken clouds at 35000 feet AGL
Weather: no significant weather observed at this time

METAR text: YPAD 130330Z 24014KT 9999 FEW032 BKN350 19/09 Q1021 NOSIG
Conditions at: YPAD (ADELAIDE INTL AR, AU) observed 0330 UTC 13 December 2019
Temperature: 19.0°C (66°F)
Dewpoint: 9.0°C (48°F) [RH = 52%]
Pressure (altimeter): 30.15 inches Hg (1021.0 mb)
Winds: from the WSW (240 degrees) at 16 MPH (14 knots; 7.2 m/s)
Visibility: 6 or more miles (10+ km)
Ceiling: 35000 feet AGL
Clouds: few clouds at 3200 feet AGL
broken clouds at 35000 feet AGL
Weather: no significant weather observed at this time

METAR text: YPAD 130300Z 24013KT 9999 FEW036 BKN350 18/09 Q1021 NOSIG
Conditions at: YPAD (ADELAIDE INTL AR, AU) observed 0300 UTC 13 December 2019
Temperature: 18.0°C (64°F)
Dewpoint: 9.0°C (48°F) [RH = 56%]
Pressure (altimeter): 30.15 inches Hg (1021.0 mb)
Winds: from the WSW (240 degrees) at 15 MPH (13 knots; 6.7 m/s)
Visibility: 6 or more miles (10+ km)
Ceiling: 35000 feet AGL
Clouds: few clouds at 3600 feet AGL
broken clouds at 35000 feet AGL
Weather: no significant weather observed at this time

METAR text: YPAD 130230Z 24014KT 9999 FEW036 BKN350 18/09 Q1021 NOSIG
Conditions at: YPAD (ADELAIDE INTL AR, AU) observed 0230 UTC 13 December 2019
Temperature: 18.0°C (64°F)
Dewpoint: 9.0°C (48°F) [RH = 56%]
Pressure (altimeter): 30.15 inches Hg (1021.0 mb)
Winds: from the WSW (240 degrees) at 16 MPH (14 knots; 7.2 m/s)
Visibility: 6 or more miles (10+ km)
Ceiling: 35000 feet AGL
Clouds: few clouds at 3600 feet AGL
broken clouds at 35000 feet AGL
Weather: no significant weather observed at this time

METAR text: YPAD 130200Z 24014KT 9999 FEW035 BKN350 18/09 Q1021
Conditions at: YPAD (ADELAIDE INTL AR, AU) observed 0200 UTC 13 December 2019
Temperature: 18.0°C (64°F)
Dewpoint: 9.0°C (48°F) [RH = 56%]
Pressure (altimeter): 30.15 inches Hg (1021.0 mb)
Winds: from the WSW (240 degrees) at 16 MPH (14 knots; 7.2 m/s)
Visibility: 6 or more miles (10+ km)
Ceiling: 35000 feet AGL
Clouds: few clouds at 3500 feet AGL
broken clouds at 35000 feet AGL
Weather: no significant weather observed at this time

METAR text: YPAD 130130Z 25015KT 9999 FEW035 BKN350 19/08 Q1022 NOSIG
Conditions at: YPAD (ADELAIDE INTL AR, AU) observed 0130 UTC 13 December 2019
Temperature: 19.0°C (66°F)
Dewpoint: 8.0°C (46°F) [RH = 49%]
Pressure (altimeter): 30.18 inches Hg (1022.0 mb)
Winds: from the WSW (250 degrees) at 17 MPH (15 knots; 7.7 m/s)
Visibility: 6 or more miles (10+ km)
Ceiling: 35000 feet AGL
Clouds: few clouds at 3500 feet AGL
broken clouds at 35000 feet AGL
Weather: no significant weather observed at this time

METAR text: YPAD 130100Z 23014KT 9999 FEW035 SCT350 19/07 Q1022 NOSIG
Conditions at: YPAD (ADELAIDE INTL AR, AU) observed 0100 UTC 13 December 2019
Temperature: 19.0°C (66°F)
Dewpoint: 7.0°C (45°F) [RH = 46%]
Pressure (altimeter): 30.18 inches Hg (1022.0 mb)
Winds: from the SW (230 degrees) at 16 MPH (14 knots; 7.2 m/s)
Visibility: 6 or more miles (10+ km)
Ceiling: at least 12,000 feet AGL
Clouds: few clouds at 3500 feet AGL
scattered clouds at 35000 feet AGL
Weather: no significant weather observed at this time

METAR text: YPAD 130030Z 23014KT 9999 SCT035 17/08 Q1022 NOSIG
Conditions at: YPAD (ADELAIDE INTL AR, AU) observed 0030 UTC 13 December 2019
Temperature: 17.0°C (63°F)
Dewpoint: 8.0°C (46°F) [RH = 55%]
Pressure (altimeter): 30.18 inches Hg (1022.0 mb)
Winds: from the SW (230 degrees) at 16 MPH (14 knots; 7.2 m/s)
Visibility: 6 or more miles (10+ km)
Ceiling: at least 12,000 feet AGL
Clouds: scattered clouds at 3500 feet AGL
Weather: no significant weather observed at this time

METAR text: YPAD 130000Z 25011KT 9999 SCT035 18/07 Q1022 FM0030 23014KT 9999 FEW035
Conditions at: YPAD (ADELAIDE INTL AR, AU) observed 0000 UTC 13 December 2019
Temperature: 18.0°C (64°F)
Dewpoint: 7.0°C (45°F) [RH = 49%]
Pressure (altimeter): 30.18 inches Hg (1022.0 mb)
Winds: from the WSW (250 degrees) at 13 MPH (11 knots; 5.7 m/s)
Visibility: 6 or more miles (10+ km)
Ceiling: at least 12,000 feet AGL
Clouds: scattered clouds at 3500 feet AGL
Weather: no significant weather observed at this time

METAR text: YPAD 122330Z 23011KT 9999 BKN035 17/08 Q1022 FM0000 23014KT 9999 SCT035
Conditions at: YPAD (ADELAIDE INTL AR, AU) observed 2330 UTC 12 December 2019
Temperature: 17.0°C (63°F)
Dewpoint: 8.0°C (46°F) [RH = 55%]
Pressure (altimeter): 30.18 inches Hg (1022.0 mb)
Winds: from the SW (230 degrees) at 13 MPH (11 knots; 5.7 m/s)
Visibility: 6 or more miles (10+ km)
Ceiling: 3500 feet AGL
Clouds: broken clouds at 3500 feet AGL
Weather: no significant weather observed at this time

METAR text: YPAD 122300Z 17007KT 170V250 9999 BKN033 17/07 Q1022 FM0030 23014KT CAVOK
Conditions at: YPAD (ADELAIDE INTL AR, AU) observed 2300 UTC 12 December 2019
Temperature: 17.0°C (63°F)
Dewpoint: 7.0°C (45°F) [RH = 52%]
Pressure (altimeter): 30.18 inches Hg (1022.0 mb)
Winds: from the S (170 degrees) at 8 MPH (7 knots; 3.6 m/s)
Visibility: 6 or more miles (10+ km)
Ceiling: 3300 feet AGL
Clouds: broken clouds at 3300 feet AGL
Weather: no significant weather observed at this time

METAR text: YPAD 122230Z 16013KT 9999 BKN033 18/07 Q1022 FM0100 23014KT CAVOK
Conditions at: YPAD (ADELAIDE INTL AR, AU) observed 2230 UTC 12 December 2019
Temperature: 18.0°C (64°F)
Dewpoint: 7.0°C (45°F) [RH = 49%]
Pressure (altimeter): 30.18 inches Hg (1022.0 mb)
Winds: from the SSE (160 degrees) at 15 MPH (13 knots; 6.7 m/s)
Visibility: 6 or more miles (10+ km)
Ceiling: 3300 feet AGL
Clouds: broken clouds at 3300 feet AGL
Weather: no significant weather observed at this time

METAR text: YPAD 122200Z 18009KT 9999 BKN033 16/06 Q1022 NOSIG
Conditions at: YPAD (ADELAIDE INTL AR, AU) observed 2200 UTC 12 December 2019
Temperature: 16.0°C (61°F)
Dewpoint: 6.0°C (43°F) [RH = 51%]
Pressure (altimeter): 30.18 inches Hg (1022.0 mb)
Winds: from the S (180 degrees) at 10 MPH (9 knots; 4.6 m/s)
Visibility: 6 or more miles (10+ km)
Ceiling: 3300 feet AGL
Clouds: broken clouds at 3300 feet AGL
Weather: no significant weather observed at this time

METAR text: YPAD 122130Z 18011KT 9999 BKN033 16/07 Q1022 NOSIG
Conditions at: YPAD (ADELAIDE INTL AR, AU) observed 2130 UTC 12 December 2019
Temperature: 16.0°C (61°F)
Dewpoint: 7.0°C (45°F) [RH = 55%]
Pressure (altimeter): 30.18 inches Hg (1022.0 mb)
Winds: from the S (180 degrees) at 13 MPH (11 knots; 5.7 m/s)
Visibility: 6 or more miles (10+ km)
Ceiling: 3300 feet AGL
Clouds: broken clouds at 3300 feet AGL
Weather: no significant weather observed at this time

METAR text: YPAD 122100Z 17008KT 9999 BKN033 16/06 Q1022 NOSIG
Conditions at: YPAD (ADELAIDE INTL AR, AU) observed 2100 UTC 12 December 2019
Temperature: 16.0°C (61°F)
Dewpoint: 6.0°C (43°F) [RH = 51%]
Pressure (altimeter): 30.18 inches Hg (1022.0 mb)
Winds: from the S (170 degrees) at 9 MPH (8 knots; 4.1 m/s)
Visibility: 6 or more miles (10+ km)
Ceiling: 3300 feet AGL
Clouds: broken clouds at 3300 feet AGL
Weather: no significant weather observed at this time

METAR text: YPAD 122030Z 18007KT 9999 BKN033 15/06 Q1022 NOSIG
Conditions at: YPAD (ADELAIDE INTL AR, AU) observed 2030 UTC 12 December 2019
Temperature: 15.0°C (59°F)
Dewpoint: 6.0°C (43°F) [RH = 55%]
Pressure (altimeter): 30.18 inches Hg (1022.0 mb)
Winds: from the S (180 degrees) at 8 MPH (7 knots; 3.6 m/s)
Visibility: 6 or more miles (10+ km)
Ceiling: 3300 feet AGL
Clouds: broken clouds at 3300 feet AGL
Weather: no significant weather observed at this time

METAR text: YPAD 122000Z 18007KT 9999 BKN032 15/06 Q1021 NOSIG
Conditions at: YPAD (ADELAIDE INTL AR, AU) observed 2000 UTC 12 December 2019
Temperature: 15.0°C (59°F)
Dewpoint: 6.0°C (43°F) [RH = 55%]
Pressure (altimeter): 30.15 inches Hg (1021.0 mb)
Winds: from the S (180 degrees) at 8 MPH (7 knots; 3.6 m/s)
Visibility: 6 or more miles (10+ km)
Ceiling: 3200 feet AGL
Clouds: broken clouds at 3200 feet AGL
Weather: no significant weather observed at this time

METAR text: YPAD 121930Z 19007KT 9999 BKN032 15/06 Q1021 NOSIG
Conditions at: YPAD (ADELAIDE INTL AR, AU) observed 1930 UTC 12 December 2019
Temperature: 15.0°C (59°F)
Dewpoint: 6.0°C (43°F) [RH = 55%]
Pressure (altimeter): 30.15 inches Hg (1021.0 mb)
Winds: from the S (190 degrees) at 8 MPH (7 knots; 3.6 m/s)
Visibility: 6 or more miles (10+ km)
Ceiling: 3200 feet AGL
Clouds: broken clouds at 3200 feet AGL
Weather: no significant weather observed at this time

METAR text: YPAD 121900Z 15007KT 9999 BKN031 15/07 Q1021 NOSIG
Conditions at: YPAD (ADELAIDE INTL AR, AU) observed 1900 UTC 12 December 2019
Temperature: 15.0°C (59°F)
Dewpoint: 7.0°C (45°F) [RH = 59%]
Pressure (altimeter): 30.15 inches Hg (1021.0 mb)
Winds: from the SSE (150 degrees) at 8 MPH (7 knots; 3.6 m/s)
Visibility: 6 or more miles (10+ km)
Ceiling: 3100 feet AGL
Clouds: broken clouds at 3100 feet AGL
Weather: no significant weather observed at this time

METAR text: YPAD 121830Z 16010KT 9999 BKN030 15/07 Q1021 NOSIG
Conditions at: YPAD (ADELAIDE INTL AR, AU) observed 1830 UTC 12 December 2019
Temperature: 15.0°C (59°F)
Dewpoint: 7.0°C (45°F) [RH = 59%]
Pressure (altimeter): 30.15 inches Hg (1021.0 mb)
Winds: from the SSE (160 degrees) at 12 MPH (10 knots; 5.1 m/s)
Visibility: 6 or more miles (10+ km)
Ceiling: 3000 feet AGL
Clouds: broken clouds at 3000 feet AGL
Weather: no significant weather observed at this time

METAR text: YPAD 121800Z 19009KT 9999 BKN030 15/07 Q1021 NOSIG
Conditions at: YPAD (ADELAIDE INTL AR, AU) observed 1800 UTC 12 December 2019
Temperature: 15.0°C (59°F)
Dewpoint: 7.0°C (45°F) [RH = 59%]
Pressure (altimeter): 30.15 inches Hg (1021.0 mb)
Winds: from the S (190 degrees) at 10 MPH (9 knots; 4.6 m/s)
Visibility: 6 or more miles (10+ km)
Ceiling: 3000 feet AGL
Clouds: broken clouds at 3000 feet AGL
Weather: no significant weather observed at this time

METAR text: YPAD 121730Z 17007KT 9999 BKN030 15/07 Q1021 NOSIG
Conditions at: YPAD (ADELAIDE INTL AR, AU) observed 1730 UTC 12 December 2019
Temperature: 15.0°C (59°F)
Dewpoint: 7.0°C (45°F) [RH = 59%]
Pressure (altimeter): 30.15 inches Hg (1021.0 mb)
Winds: from the S (170 degrees) at 8 MPH (7 knots; 3.6 m/s)
Visibility: 6 or more miles (10+ km)
Ceiling: 3000 feet AGL
Clouds: broken clouds at 3000 feet AGL
Weather: no significant weather observed at this time

METAR text: YPAD 121700Z 15007KT 9999 BKN030 14/07 Q1021 NOSIG
Conditions at: YPAD (ADELAIDE INTL AR, AU) observed 1700 UTC 12 December 2019
Temperature: 14.0°C (57°F)
Dewpoint: 7.0°C (45°F) [RH = 63%]
Pressure (altimeter): 30.15 inches Hg (1021.0 mb)
Winds: from the SSE (150 degrees) at 8 MPH (7 knots; 3.6 m/s)
Visibility: 6 or more miles (10+ km)
Ceiling: 3000 feet AGL
Clouds: broken clouds at 3000 feet AGL
Weather: no significant weather observed at this time

METAR text: YPAD 121630Z 17008KT 9999 BKN030 14/07 Q1022 NOSIG
Conditions at: YPAD (ADELAIDE INTL AR, AU) observed 1630 UTC 12 December 2019
Temperature: 14.0°C (57°F)
Dewpoint: 7.0°C (45°F) [RH = 63%]
Pressure (altimeter): 30.18 inches Hg (1022.0 mb)
Winds: from the S (170 degrees) at 9 MPH (8 knots; 4.1 m/s)
Visibility: 6 or more miles (10+ km)
Ceiling: 3000 feet AGL
Clouds: broken clouds at 3000 feet AGL
Weather: no significant weather observed at this time

METAR text: YPAD 121600Z 17011KT 9999 BKN030 15/07 Q1022 NOSIG
Conditions at: YPAD (ADELAIDE INTL AR, AU) observed 1600 UTC 12 December 2019
Temperature: 15.0°C (59°F)
Dewpoint: 7.0°C (45°F) [RH = 59%]
Pressure (altimeter): 30.18 inches Hg (1022.0 mb)
Winds: from the S (170 degrees) at 13 MPH (11 knots; 5.7 m/s)
Visibility: 6 or more miles (10+ km)
Ceiling: 3000 feet AGL
Clouds: broken clouds at 3000 feet AGL
Weather: no significant weather observed at this time

METAR text: YPAD 121530Z 18009KT 9999 BKN030 15/07 Q1022 NOSIG
Conditions at: YPAD (ADELAIDE INTL AR, AU) observed 1530 UTC 12 December 2019
Temperature: 15.0°C (59°F)
Dewpoint: 7.0°C (45°F) [RH = 59%]
Pressure (altimeter): 30.18 inches Hg (1022.0 mb)
Winds: from the S (180 degrees) at 10 MPH (9 knots; 4.6 m/s)
Visibility: 6 or more miles (10+ km)
Ceiling: 3000 feet AGL
Clouds: broken clouds at 3000 feet AGL
Weather: no significant weather observed at this time

METAR text: YPAD 121500Z 19006KT 9999 BKN030 15/08 Q1022 NOSIG
Conditions at: YPAD (ADELAIDE INTL AR, AU) observed 1500 UTC 12 December 2019
Temperature: 15.0°C (59°F)
Dewpoint: 8.0°C (46°F) [RH = 63%]
Pressure (altimeter): 30.18 inches Hg (1022.0 mb)
Winds: from the S (190 degrees) at 7 MPH (6 knots; 3.1 m/s)
Visibility: 6 or more miles (10+ km)
Ceiling: 3000 feet AGL
Clouds: broken clouds at 3000 feet AGL
Weather: no significant weather observed at this time

METAR text: YPAD 121430Z 18006KT 9999 BKN030 14/08 Q1023 NOSIG
Conditions at: YPAD (ADELAIDE INTL AR, AU) observed 1430 UTC 12 December 2019
Temperature: 14.0°C (57°F)
Dewpoint: 8.0°C (46°F) [RH = 67%]
Pressure (altimeter): 30.21 inches Hg (1023.0 mb)
Winds: from the S (180 degrees) at 7 MPH (6 knots; 3.1 m/s)
Visibility: 6 or more miles (10+ km)
Ceiling: 3000 feet AGL
Clouds: broken clouds at 3000 feet AGL
Weather: no significant weather observed at this time

METAR text: YPAD 121400Z 19008KT 9999 BKN028 14/07 Q1023 NOSIG
Conditions at: YPAD (ADELAIDE INTL AR, AU) observed 1400 UTC 12 December 2019
Temperature: 14.0°C (57°F)
Dewpoint: 7.0°C (45°F) [RH = 63%]
Pressure (altimeter): 30.21 inches Hg (1023.0 mb)
Winds: from the S (190 degrees) at 9 MPH (8 knots; 4.1 m/s)
Visibility: 6 or more miles (10+ km)
Ceiling: 2800 feet AGL
Clouds: broken clouds at 2800 feet AGL
Weather: no significant weather observed at this time

METAR text: YPAD 121330Z 19008KT 9999 FEW028 14/08 Q1023 NOSIG
Conditions at: YPAD (ADELAIDE INTL AR, AU) observed 1330 UTC 12 December 2019
Temperature: 14.0°C (57°F)
Dewpoint: 8.0°C (46°F) [RH = 67%]
Pressure (altimeter): 30.21 inches Hg (1023.0 mb)
Winds: from the S (190 degrees) at 9 MPH (8 knots; 4.1 m/s)
Visibility: 6 or more miles (10+ km)
Ceiling: at least 12,000 feet AGL
Clouds: few clouds at 2800 feet AGL
Weather: no significant weather observed at this time

METAR text: YPAD 121300Z 19010KT 9999 FEW028 14/07 Q1023 NOSIG
Conditions at: YPAD (ADELAIDE INTL AR, AU) observed 1300 UTC 12 December 2019
Temperature: 14.0°C (57°F)
Dewpoint: 7.0°C (45°F) [RH = 63%]
Pressure (altimeter): 30.21 inches Hg (1023.0 mb)
Winds: from the S (190 degrees) at 12 MPH (10 knots; 5.1 m/s)
Visibility: 6 or more miles (10+ km)
Ceiling: at least 12,000 feet AGL
Clouds: few clouds at 2800 feet AGL
Weather: no significant weather observed at this time

METAR text: YPAD 121230Z 19009KT 9999 FEW032 15/07 Q1023 NOSIG
Conditions at: YPAD (ADELAIDE INTL AR, AU) observed 1230 UTC 12 December 2019
Temperature: 15.0°C (59°F)
Dewpoint: 7.0°C (45°F) [RH = 59%]
Pressure (altimeter): 30.21 inches Hg (1023.0 mb)
Winds: from the S (190 degrees) at 10 MPH (9 knots; 4.6 m/s)
Visibility: 6 or more miles (10+ km)
Ceiling: at least 12,000 feet AGL
Clouds: few clouds at 3200 feet AGL
Weather: no significant weather observed at this time

METAR text: YPAD 121200Z 19009KT 9999 FEW032 15/07 Q1023 NOSIG
Conditions at: YPAD (ADELAIDE INTL AR, AU) observed 1200 UTC 12 December 2019
Temperature: 15.0°C (59°F)
Dewpoint: 7.0°C (45°F) [RH = 59%]
Pressure (altimeter): 30.21 inches Hg (1023.0 mb)
Winds: from the S (190 degrees) at 10 MPH (9 knots; 4.6 m/s)
Visibility: 6 or more miles (10+ km)
Ceiling: at least 12,000 feet AGL
Clouds: few clouds at 3200 feet AGL
Weather: no significant weather observed at this time

METAR text: YPAD 121130Z 17010KT 9999 FEW032 15/07 Q1023 NOSIG
Conditions at: YPAD (ADELAIDE INTL AR, AU) observed 1130 UTC 12 December 2019
Temperature: 15.0°C (59°F)
Dewpoint: 7.0°C (45°F) [RH = 59%]
Pressure (altimeter): 30.21 inches Hg (1023.0 mb)
Winds: from the S (170 degrees) at 12 MPH (10 knots; 5.1 m/s)
Visibility: 6 or more miles (10+ km)
Ceiling: at least 12,000 feet AGL
Clouds: few clouds at 3200 feet AGL
Weather: no significant weather observed at this time

METAR text: YPAD 121100Z 18010KT 9999 FEW036 15/07 Q1023 NOSIG
Conditions at: YPAD (ADELAIDE INTL AR, AU) observed 1100 UTC 12 December 2019
Temperature: 15.0°C (59°F)
Dewpoint: 7.0°C (45°F) [RH = 59%]
Pressure (altimeter): 30.21 inches Hg (1023.0 mb)
Winds: from the S (180 degrees) at 12 MPH (10 knots; 5.1 m/s)
Visibility: 6 or more miles (10+ km)
Ceiling: at least 12,000 feet AGL
Clouds: few clouds at 3600 feet AGL
Weather: no significant weather observed at this time

METAR text: YPAD 121030Z 16011KT 9999 FEW036 15/07 Q1023 NOSIG
Conditions at: YPAD (ADELAIDE INTL AR, AU) observed 1030 UTC 12 December 2019
Temperature: 15.0°C (59°F)
Dewpoint: 7.0°C (45°F) [RH = 59%]
Pressure (altimeter): 30.21 inches Hg (1023.0 mb)
Winds: from the SSE (160 degrees) at 13 MPH (11 knots; 5.7 m/s)
Visibility: 6 or more miles (10+ km)
Ceiling: at least 12,000 feet AGL
Clouds: few clouds at 3600 feet AGL
Weather: no significant weather observed at this time

METAR text: YPAD 121000Z 16015KT 9999 FEW036 16/07 Q1023 NOSIG
Conditions at: YPAD (ADELAIDE INTL AR, AU) observed 1000 UTC 12 December 2019
Temperature: 16.0°C (61°F)
Dewpoint: 7.0°C (45°F) [RH = 55%]
Pressure (altimeter): 30.21 inches Hg (1023.0 mb)
Winds: from the SSE (160 degrees) at 17 MPH (15 knots; 7.7 m/s)
Visibility: 6 or more miles (10+ km)
Ceiling: at least 12,000 feet AGL
Clouds: few clouds at 3600 feet AGL
Weather: no significant weather observed at this time

METAR text: YPAD 120930Z 17014KT 9999 FEW036 17/07 Q1022 NOSIG
Conditions at: YPAD (ADELAIDE INTL AR, AU) observed 0930 UTC 12 December 2019
Temperature: 17.0°C (63°F)
Dewpoint: 7.0°C (45°F) [RH = 52%]
Pressure (altimeter): 30.18 inches Hg (1022.0 mb)
Winds: from the S (170 degrees) at 16 MPH (14 knots; 7.2 m/s)
Visibility: 6 or more miles (10+ km)
Ceiling: at least 12,000 feet AGL
Clouds: few clouds at 3600 feet AGL
Weather: no significant weather observed at this time

METAR text: YPAD 120900Z AUTO 17014KT 9999 // NCD 18/06 Q1022 NOSIG
Conditions at: YPAD (ADELAIDE INTL AR, AU) observed 0900 UTC 12 December 2019
Temperature: 18.0°C (64°F)
Dewpoint: 6.0°C (43°F) [RH = 45%]
Pressure (altimeter): 30.18 inches Hg (1022.0 mb)
Winds: from the S (170 degrees) at 16 MPH (14 knots; 7.2 m/s)
Visibility: 6 or more miles (10+ km)
Ceiling: at least 12,000 feet AGL
Clouds: sky clear below 12,000 feet AGL
Weather: no significant weather observed at this time

METAR text: YPAD 120830Z 17014KT 9999 FEW036 19/08 Q1021 NOSIG
Conditions at: YPAD (ADELAIDE INTL AR, AU) observed 0830 UTC 12 December 2019
Temperature: 19.0°C (66°F)
Dewpoint: 8.0°C (46°F) [RH = 49%]
Pressure (altimeter): 30.15 inches Hg (1021.0 mb)
Winds: from the S (170 degrees) at 16 MPH (14 knots; 7.2 m/s)
Visibility: 6 or more miles (10+ km)
Ceiling: at least 12,000 feet AGL
Clouds: few clouds at 3600 feet AGL
Weather: no significant weather observed at this time

METAR text: YPAD 120800Z 21016KT 9999 FEW040 19/09 Q1021 FM0900 17012KT CAVOK
Conditions at: YPAD (ADELAIDE INTL AR, AU) observed 0800 UTC 12 December 2019
Temperature: 19.0°C (66°F)
Dewpoint: 9.0°C (48°F) [RH = 52%]
Pressure (altimeter): 30.15 inches Hg (1021.0 mb)
Winds: from the SSW (210 degrees) at 18 MPH (16 knots; 8.2 m/s)
Visibility: 6 or more miles (10+ km)
Ceiling: at least 12,000 feet AGL
Clouds: few clouds at 4000 feet AGL
Weather: no significant weather observed at this time

METAR text: YPAD 120730Z 21018KT 9999 FEW040 19/09 Q1021 FM0900 17012KT CAVOK
Conditions at: YPAD (ADELAIDE INTL AR, AU) observed 0730 UTC 12 December 2019
Temperature: 19.0°C (66°F)
Dewpoint: 9.0°C (48°F) [RH = 52%]
Pressure (altimeter): 30.15 inches Hg (1021.0 mb)
Winds: from the SSW (210 degrees) at 21 MPH (18 knots; 9.3 m/s)
Visibility: 6 or more miles (10+ km)
Ceiling: at least 12,000 feet AGL
Clouds: few clouds at 4000 feet AGL
Weather: no significant weather observed at this time

METAR text: YPAD 120700Z 22019KT 9999 FEW040 20/08 Q1021 FM0900 17012KT CAVOK
Conditions at: YPAD (ADELAIDE INTL AR, AU) observed 0700 UTC 12 December 2019
Temperature: 20.0°C (68°F)
Dewpoint: 8.0°C (46°F) [RH = 46%]
Pressure (altimeter): 30.15 inches Hg (1021.0 mb)
Winds: from the SW (220 degrees) at 22 MPH (19 knots; 9.8 m/s)
Visibility: 6 or more miles (10+ km)
Ceiling: at least 12,000 feet AGL
Clouds: few clouds at 4000 feet AGL
Weather: no significant weather observed at this time

METAR text: YPAD 120630Z 22019KT 9999 FEW040 20/09 Q1021 FM0900 17012KT CAVOK
Conditions at: YPAD (ADELAIDE INTL AR, AU) observed 0630 UTC 12 December 2019
Temperature: 20.0°C (68°F)
Dewpoint: 9.0°C (48°F) [RH = 49%]
Pressure (altimeter): 30.15 inches Hg (1021.0 mb)
Winds: from the SW (220 degrees) at 22 MPH (19 knots; 9.8 m/s)
Visibility: 6 or more miles (10+ km)
Ceiling: at least 12,000 feet AGL
Clouds: few clouds at 4000 feet AGL
Weather: no significant weather observed at this time

METAR text: YPAD 120600Z 23020KT 9999 FEW040 20/09 Q1021 NOSIG
Conditions at: YPAD (ADELAIDE INTL AR, AU) observed 0600 UTC 12 December 2019
Temperature: 20.0°C (68°F)
Dewpoint: 9.0°C (48°F) [RH = 49%]
Pressure (altimeter): 30.15 inches Hg (1021.0 mb)
Winds: from the SW (230 degrees) at 23 MPH (20 knots; 10.3 m/s)
Visibility: 6 or more miles (10+ km)
Ceiling: at least 12,000 feet AGL
Clouds: few clouds at 4000 feet AGL
Weather: no significant weather observed at this time

METAR text: YPAD 120530Z 23021KT 9999 FEW040 20/09 Q1021 NOSIG
Conditions at: YPAD (ADELAIDE INTL AR, AU) observed 0530 UTC 12 December 2019
Temperature: 20.0°C (68°F)
Dewpoint: 9.0°C (48°F) [RH = 49%]
Pressure (altimeter): 30.15 inches Hg (1021.0 mb)
Winds: from the SW (230 degrees) at 24 MPH (21 knots; 10.8 m/s)
Visibility: 6 or more miles (10+ km)
Ceiling: at least 12,000 feet AGL
Clouds: few clouds at 4000 feet AGL
Weather: no significant weather observed at this time

METAR text: YPAD 120500Z 22020KT 9999 FEW040 20/09 Q1021 NOSIG
Conditions at: YPAD (ADELAIDE INTL AR, AU) observed 0500 UTC 12 December 2019
Temperature: 20.0°C (68°F)
Dewpoint: 9.0°C (48°F) [RH = 49%]
Pressure (altimeter): 30.15 inches Hg (1021.0 mb)
Winds: from the SW (220 degrees) at 23 MPH (20 knots; 10.3 m/s)
Visibility: 6 or more miles (10+ km)
Ceiling: at least 12,000 feet AGL
Clouds: few clouds at 4000 feet AGL
Weather: no significant weather observed at this time

METAR text: YPAD 120430Z 22020KT 9999 FEW040 20/09 Q1021 NOSIG
Conditions at: YPAD (ADELAIDE INTL AR, AU) observed 0430 UTC 12 December 2019
Temperature: 20.0°C (68°F)
Dewpoint: 9.0°C (48°F) [RH = 49%]
Pressure (altimeter): 30.15 inches Hg (1021.0 mb)
Winds: from the SW (220 degrees) at 23 MPH (20 knots; 10.3 m/s)
Visibility: 6 or more miles (10+ km)
Ceiling: at least 12,000 feet AGL
Clouds: few clouds at 4000 feet AGL
Weather: no significant weather observed at this time

METAR text: YPAD 120400Z 22019KT 9999 FEW040 21/09 Q1021 NOSIG
Conditions at: YPAD (ADELAIDE INTL AR, AU) observed 0400 UTC 12 December 2019
Temperature: 21.0°C (70°F)
Dewpoint: 9.0°C (48°F) [RH = 46%]
Pressure (altimeter): 30.15 inches Hg (1021.0 mb)
Winds: from the SW (220 degrees) at 22 MPH (19 knots; 9.8 m/s)
Visibility: 6 or more miles (10+ km)
Ceiling: at least 12,000 feet AGL
Clouds: few clouds at 4000 feet AGL
Weather: no significant weather observed at this time

METAR text: YPAD 120330Z 22018KT 9999 FEW040 21/10 Q1021 NOSIG
Conditions at: YPAD (ADELAIDE INTL AR, AU) observed 0330 UTC 12 December 2019
Temperature: 21.0°C (70°F)
Dewpoint: 10.0°C (50°F) [RH = 49%]
Pressure (altimeter): 30.15 inches Hg (1021.0 mb)
Winds: from the SW (220 degrees) at 21 MPH (18 knots; 9.3 m/s)
Visibility: 6 or more miles (10+ km)
Ceiling: at least 12,000 feet AGL
Clouds: few clouds at 4000 feet AGL
Weather: no significant weather observed at this time

METAR text: YPAD 120300Z 18014KT 9999 FEW040 20/10 Q1021 FM0330 20014KT CAVOK
Conditions at: YPAD (ADELAIDE INTL AR, AU) observed 0300 UTC 12 December 2019
Temperature: 20.0°C (68°F)
Dewpoint: 10.0°C (50°F) [RH = 53%]
Pressure (altimeter): 30.15 inches Hg (1021.0 mb)
Winds: from the S (180 degrees) at 16 MPH (14 knots; 7.2 m/s)
Visibility: 6 or more miles (10+ km)
Ceiling: at least 12,000 feet AGL
Clouds: few clouds at 4000 feet AGL
Weather: no significant weather observed at this time

METAR text: YPAD 120230Z 23018KT 9999 FEW040 21/10 Q1021 NOSIG
Conditions at: YPAD (ADELAIDE INTL AR, AU) observed 0230 UTC 12 December 2019
Temperature: 21.0°C (70°F)
Dewpoint: 10.0°C (50°F) [RH = 49%]
Pressure (altimeter): 30.15 inches Hg (1021.0 mb)
Winds: from the SW (230 degrees) at 21 MPH (18 knots; 9.3 m/s)
Visibility: 6 or more miles (10+ km)
Ceiling: at least 12,000 feet AGL
Clouds: few clouds at 4000 feet AGL
Weather: no significant weather observed at this time

METAR text: YPAD 120200Z 21017KT 9999 FEW037 20/10 Q1022 NOSIG
Conditions at: YPAD (ADELAIDE INTL AR, AU) observed 0200 UTC 12 December 2019
Temperature: 20.0°C (68°F)
Dewpoint: 10.0°C (50°F) [RH = 53%]
Pressure (altimeter): 30.18 inches Hg (1022.0 mb)
Winds: from the SSW (210 degrees) at 20 MPH (17 knots; 8.7 m/s)
Visibility: 6 or more miles (10+ km)
Ceiling: at least 12,000 feet AGL
Clouds: few clouds at 3700 feet AGL
Weather: no significant weather observed at this time

Forecast for: YPAD (ADELAIDE INTL AR, AU)
Text: TAF YPAD 131108Z 1312/1418 18010KT CAVOK
Forecast period: 1200 to 1600 UTC 13 December 2019
Forecast type: FROM: standard forecast or significant change
Winds: from the S (180 degrees) at 12 MPH (10 knots; 5.1 m/s)
Visibility: 6 or more miles 10+ km)
Ceiling: unknown
Clouds: missing
Weather: NSW  (no significant weather)
Text: FM131600 19006KT 9999 SCT015 BKN020
Forecast period: 1600 to 2300 UTC 13 December 2019
Forecast type: FROM: standard forecast or significant change
Winds: from the S (190 degrees) at 7 MPH (6 knots; 3.1 m/s)
Visibility: 6 or more miles 10+ km)
Ceiling: 2000 feet AGL
Clouds: scattered clouds at 1500 feet AGL
broken clouds at 2000 feet AGL
Weather: no significant weather forecast for this period
Text: FM132300 23010KT 9999 BKN020
Forecast period: 2300 UTC 13 December 2019 to 0100 UTC 14 December 2019
Forecast type: FROM: standard forecast or significant change
Winds: from the SW (230 degrees) at 12 MPH (10 knots; 5.1 m/s)
Visibility: 6 or more miles 10+ km)
Ceiling: 2000 feet AGL
Clouds: broken clouds at 2000 feet AGL
Weather: no significant weather forecast for this period
Text: FM140100 23012KT CAVOK
Forecast period: 0100 to 1000 UTC 14 December 2019
Forecast type: FROM: standard forecast or significant change
Winds: from the SW (230 degrees) at 14 MPH (12 knots; 6.2 m/s)
Visibility: 6 or more miles 10+ km)
Ceiling: unknown
Clouds: missing
Weather: NSW  (no significant weather)
Text: FM141000 20008KT CAVOK
Forecast period: 1000 to 1300 UTC 14 December 2019
Forecast type: FROM: standard forecast or significant change
Winds: from the SSW (200 degrees) at 9 MPH (8 knots; 4.1 m/s)
Visibility: 6 or more miles 10+ km)
Ceiling: unknown
Clouds: missing
Weather: NSW  (no significant weather)
Text: FM141300 VRB05KT CAVOK
Forecast period: 1300 to 1800 UTC 14 December 2019
Forecast type: FROM: standard forecast or significant change
Winds: variable direction winds at 6 MPH (5 knots; 2.6 m/s)
Visibility: 6 or more miles 10+ km)
Ceiling: unknown
Clouds: missing
Weather: NSW  (no significant weather)